Time;durP1;ratioP1;P1;durP2;ratioP2;P2;SDS_P1;SDS_P2;PMS_P1;PMS_P2;Temp;Humidity;BMP_temperature;BMP_pressure;BME280_temperature;BME280_humidity;BME280_pressure;Samples;Min_cycle;Max_cycle;Signal;HPM_P1;HPM_P2
2022/10/05 00:00:45;;;;;;;14.93;6.43;;;;;;;;;;4977794;28;20031;-91
2022/10/05 00:03:11;;;;;;;13.80;6.43;;;;;;;;;;4963955;28;20038;-91
2022/10/05 00:05:37;;;;;;;17.38;6.55;;;;;;;;;;4981355;28;20022;-90
2022/10/05 00:08:09;;;;;;;16.15;6.40;;;;;;;;;;4964113;28;20049;-90
2022/10/05 00:10:36;;;;;;;12.52;5.55;;;;;;;;;;4976257;28;20093;-92
2022/10/05 00:13:02;;;;;;;10.40;4.80;;;;;;;;;;4951867;28;20164;-90
2022/10/05 00:15:28;;;;;;;9.35;5.65;;;;;;;;;;4966429;28;20044;-90
2022/10/05 00:17:55;;;;;;;10.52;5.75;;;;;;;;;;4946519;28;20038;-91
2022/10/05 00:20:23;;;;;;;10.05;4.65;;;;;;;;;;4981277;28;20038;-90
2022/10/05 00:22:57;;;;;;;13.10;4.25;;;;;;;;;;4960813;28;20109;-91
2022/10/05 00:25:23;;;;;;;10.90;6.00;;;;;;;;;;4961888;28;20088;-91
2022/10/05 00:28:04;;;;;;;13.48;7.55;;;;;;;;;;4943029;28;20081;-90
2022/10/05 00:30:32;;;;;;;11.07;5.93;;;;;;;;;;4963184;28;20039;-90
2022/10/05 00:32:58;;;;;;;15.55;6.72;;;;;;;;;;4962051;28;20030;-91
2022/10/05 00:35:34;;;;;;;9.68;5.95;;;;;;;;;;4956916;28;20078;-91
2022/10/05 00:38:00;;;;;;;16.00;6.20;;;;;;;;;;4961181;28;20233;-90
2022/10/05 00:40:32;;;;;;;10.60;5.65;;;;;;;;;;4946345;28;20126;-91
2022/10/05 00:43:29;;;;;;;14.07;5.70;;;;;;;;;;4963172;28;20414;-91
2022/10/05 00:46:05;;;;;;;10.82;5.00;;;;;;;;;;4964274;28;20035;-90
2022/10/05 00:48:38;;;;;;;16.10;6.00;;;;;;;;;;4964455;28;20567;-91
2022/10/05 00:51:10;;;;;;;9.43;4.22;;;;;;;;;;4958463;28;20042;-90
2022/10/05 00:53:38;;;;;;;11.35;5.68;;;;;;;;;;4962500;28;20479;-91
2022/10/05 00:56:27;;;;;;;14.73;5.15;;;;;;;;;;4963467;28;20031;-90
2022/10/05 00:58:53;;;;;;;13.55;5.80;;;;;;;;;;4955468;28;20045;-90
2022/10/05 01:01:25;;;;;;;7.45;4.25;;;;;;;;;;4964846;28;20037;-91
2022/10/05 01:04:03;;;;;;;10.25;4.40;;;;;;;;;;4961958;28;20491;-90
2022/10/05 01:06:32;;;;;;;10.68;4.50;;;;;;;;;;4960408;28;20026;-90
2022/10/05 01:09:17;;;;;;;7.78;4.38;;;;;;;;;;4964117;28;20037;-90
2022/10/05 01:11:51;;;;;;;7.70;3.42;;;;;;;;;;4963722;28;20023;-90
2022/10/05 01:14:29;;;;;;;10.18;4.40;;;;;;;;;;4961659;28;20144;-90
2022/10/05 01:16:58;;;;;;;7.10;3.80;;;;;;;;;;4960649;28;20039;-90
2022/10/05 01:19:45;;;;;;;9.10;4.10;;;;;;;;;;4976686;28;20081;-91
2022/10/05 01:22:17;;;;;;;8.13;3.88;;;;;;;;;;4979941;28;20603;-91
2022/10/05 01:24:48;;;;;;;12.82;4.07;;;;;;;;;;4963369;28;20030;-92
2022/10/05 01:27:50;;;;;;;6.60;3.00;;;;;;;;;;4962995;28;20845;-90
2022/10/05 01:30:20;;;;;;;7.60;3.65;;;;;;;;;;4904527;29;20070;-90
2022/10/05 01:32:49;;;;;;;6.18;3.25;;;;;;;;;;4938794;28;20283;-90
2022/10/05 01:35:23;;;;;;;9.10;3.88;;;;;;;;;;4964496;28;20031;-90
2022/10/05 01:38:08;;;;;;;10.98;3.80;;;;;;;;;;4975284;28;20043;-90
2022/10/05 01:40:54;;;;;;;10.00;3.63;;;;;;;;;;4965163;28;20062;-90
2022/10/05 01:43:38;;;;;;;14.52;4.35;;;;;;;;;;4982402;28;20133;-90
2022/10/05 01:46:16;;;;;;;5.93;3.78;;;;;;;;;;4982643;28;20073;-90
2022/10/05 01:49:01;;;;;;;5.18;3.05;;;;;;;;;;4977800;28;20169;-91
2022/10/05 01:51:27;;;;;;;7.53;3.88;;;;;;;;;;4963104;28;20443;-92
2022/10/05 01:53:53;;;;;;;10.07;3.45;;;;;;;;;;4978459;28;20113;-91
2022/10/05 01:56:24;;;;;;;9.65;4.13;;;;;;;;;;4968509;28;20046;-91
2022/10/05 01:59:06;;;;;;;7.68;3.78;;;;;;;;;;4983572;28;20038;-90
2022/10/05 02:01:41;;;;;;;8.27;4.90;;;;;;;;;;4965146;28;20030;-91
2022/10/05 02:04:11;;;;;;;9.37;5.07;;;;;;;;;;4980957;28;20383;-90
2022/10/05 02:06:44;;;;;;;11.57;4.80;;;;;;;;;;4963666;28;20023;-90
2022/10/05 02:09:28;;;;;;;10.07;5.10;;;;;;;;;;4966859;28;20085;-90
2022/10/05 02:12:02;;;;;;;12.93;5.50;;;;;;;;;;4979059;28;20046;-90
2022/10/05 02:14:32;;;;;;;7.65;4.68;;;;;;;;;;4977347;28;20038;-91
2022/10/05 02:17:00;;;;;;;9.18;4.43;;;;;;;;;;4970852;28;20053;-90
2022/10/05 02:19:44;;;;;;;8.55;4.97;;;;;;;;;;4977465;28;20030;-91
2022/10/05 02:22:23;;;;;;;8.90;4.47;;;;;;;;;;4966933;28;20019;-90
2022/10/05 02:25:12;;;;;;;6.85;4.97;;;;;;;;;;4968424;28;20037;-90
2022/10/05 02:27:44;;;;;;;11.90;5.30;;;;;;;;;;4962171;28;20023;-91
2022/10/05 02:30:10;;;;;;;5.47;2.95;;;;;;;;;;4982091;28;20315;-91
2022/10/05 02:32:41;;;;;;;8.95;4.55;;;;;;;;;;4962951;28;20043;-90
2022/10/05 02:35:15;;;;;;;10.43;4.45;;;;;;;;;;4958890;28;20090;-91
2022/10/05 02:37:49;;;;;;;7.00;4.32;;;;;;;;;;4981533;28;20165;-91
2022/10/05 02:40:33;;;;;;;14.52;4.97;;;;;;;;;;4969209;28;20157;-91
2022/10/05 02:43:03;;;;;;;8.98;4.38;;;;;;;;;;4970960;28;20070;-90
2022/10/05 02:45:32;;;;;;;9.57;5.03;;;;;;;;;;4963623;28;20202;-91
2022/10/05 02:48:10;;;;;;;13.13;4.40;;;;;;;;;;4946094;28;20069;-91
2022/10/05 02:50:48;;;;;;;13.88;5.07;;;;;;;;;;4961850;28;20483;-91
2022/10/05 02:53:22;;;;;;;10.73;3.70;;;;;;;;;;4962458;28;20026;-91
2022/10/05 02:55:54;;;;;;;11.13;4.88;;;;;;;;;;4958812;28;20035;-91
2022/10/05 02:58:28;;;;;;;8.52;4.00;;;;;;;;;;4963887;28;20577;-91
2022/10/05 03:01:11;;;;;;;7.38;4.35;;;;;;;;;;4959468;28;20042;-91
2022/10/05 03:03:39;;;;;;;12.88;4.60;;;;;;;;;;4965031;28;20039;-91
2022/10/05 03:06:11;;;;;;;7.20;4.53;;;;;;;;;;4964754;28;20320;-92
2022/10/05 03:08:43;;;;;;;8.23;4.63;;;;;;;;;;4966684;28;20082;-90
2022/10/05 03:11:09;;;;;;;9.57;4.30;;;;;;;;;;4958220;28;20055;-91
2022/10/05 03:13:55;;;;;;;13.73;4.13;;;;;;;;;;4948712;28;20113;-91
2022/10/05 03:16:24;;;;;;;10.02;4.38;;;;;;;;;;4961088;28;20027;-91
2022/10/05 03:19:09;;;;;;;9.70;3.65;;;;;;;;;;4948981;28;20033;-91
2022/10/05 03:21:48;;;;;;;7.65;4.43;;;;;;;;;;4963279;28;20030;-88
2022/10/05 03:24:33;;;;;;;5.70;3.20;;;;;;;;;;4946574;28;20063;-88
2022/10/05 03:27:08;;;;;;;8.90;5.03;;;;;;;;;;4965617;28;20437;-88
2022/10/05 03:29:47;;;;;;;6.78;4.03;;;;;;;;;;4956980;28;20099;-88
2022/10/05 03:32:21;;;;;;;8.05;3.70;;;;;;;;;;4962872;28;20046;-88
2022/10/05 03:34:59;;;;;;;7.70;3.83;;;;;;;;;;4962576;28;20419;-91
2022/10/05 03:37:34;;;;;;;7.97;3.95;;;;;;;;;;4964624;28;20031;-91
2022/10/05 03:40:03;;;;;;;6.63;3.83;;;;;;;;;;4946223;28;20027;-91
2022/10/05 03:42:42;;;;;;;6.53;3.67;;;;;;;;;;4948669;28;20061;-92
2022/10/05 03:45:14;;;;;;;14.77;4.35;;;;;;;;;;4962130;28;20046;-91
2022/10/05 03:47:40;;;;;;;11.77;4.32;;;;;;;;;;4983326;28;20034;-91
2022/10/05 03:50:09;;;;;;;11.85;4.32;;;;;;;;;;4965079;28;20360;-92
2022/10/05 03:52:54;;;;;;;9.38;3.40;;;;;;;;;;4975878;28;20033;-91
2022/10/05 03:55:33;;;;;;;6.93;4.20;;;;;;;;;;4962498;28;20518;-91
2022/10/05 03:58:02;;;;;;;7.55;4.00;;;;;;;;;;4980255;28;20038;-90
2022/10/05 04:00:30;;;;;;;6.15;3.67;;;;;;;;;;4963602;28;20398;-92
2022/10/05 04:03:02;;;;;;;7.38;4.10;;;;;;;;;;4961033;28;20026;-91
2022/10/05 04:05:55;;;;;;;6.85;3.55;;;;;;;;;;4964046;28;20038;-91
2022/10/05 04:08:21;;;;;;;8.95;4.00;;;;;;;;;;4963008;28;20043;-91
2022/10/05 04:10:57;;;;;;;9.13;4.07;;;;;;;;;;4977964;28;20026;-90
2022/10/05 04:13:27;;;;;;;9.18;3.25;;;;;;;;;;4978644;28;20387;-91
2022/10/05 04:15:57;;;;;;;7.18;3.10;;;;;;;;;;4957871;28;20871;-92
2022/10/05 04:18:26;;;;;;;4.93;3.17;;;;;;;;;;4969375;28;20034;-91
2022/10/05 04:20:55;;;;;;;9.15;3.72;;;;;;;;;;4981551;28;20490;-90
2022/10/05 04:23:21;;;;;;;9.52;4.13;;;;;;;;;;4967577;28;20121;-90
2022/10/05 04:25:50;;;;;;;6.30;4.15;;;;;;;;;;4968824;28;20116;-91
2022/10/05 04:28:19;;;;;;;7.38;3.22;;;;;;;;;;4964597;28;20034;-91
2022/10/05 04:30:47;;;;;;;6.00;3.55;;;;;;;;;;4966545;28;20478;-91
2022/10/05 04:33:14;;;;;;;7.60;3.60;;;;;;;;;;4970654;28;20026;-91
2022/10/05 04:35:59;;;;;;;10.23;4.10;;;;;;;;;;4952767;28;20035;-91
2022/10/05 04:38:44;;;;;;;10.85;3.95;;;;;;;;;;4967258;28;20679;-90
2022/10/05 04:41:29;;;;;;;11.50;4.53;;;;;;;;;;4964370;28;20056;-91
2022/10/05 04:44:10;;;;;;;8.77;3.08;;;;;;;;;;4968183;28;20043;-91
2022/10/05 04:46:36;;;;;;;8.23;4.07;;;;;;;;;;4965736;28;20117;-91
2022/10/05 04:49:21;;;;;;;8.43;4.50;;;;;;;;;;4976995;28;20110;-91
2022/10/05 04:51:56;;;;;;;6.95;4.07;;;;;;;;;;4964343;28;20026;-91
2022/10/05 04:54:27;;;;;;;7.10;3.70;;;;;;;;;;4977594;28;20057;-91
2022/10/05 04:56:55;;;;;;;8.95;4.63;;;;;;;;;;4967345;28;20030;-91
2022/10/05 04:59:39;;;;;;;10.40;4.25;;;;;;;;;;4965520;28;20197;-91
2022/10/05 05:02:26;;;;;;;8.10;5.10;;;;;;;;;;4965511;28;20117;-91
2022/10/05 05:05:11;;;;;;;10.27;4.65;;;;;;;;;;4962642;28;20114;-90
2022/10/05 05:07:46;;;;;;;8.30;3.85;;;;;;;;;;4966408;28;20180;-91
2022/10/05 05:10:35;;;;;;;7.95;4.28;;;;;;;;;;4964704;28;20034;-90
2022/10/05 05:13:23;;;;;;;11.35;5.53;;;;;;;;;;4967477;28;20035;-91
2022/10/05 05:16:07;;;;;;;8.10;5.20;;;;;;;;;;4956898;28;20062;-91
2022/10/05 05:18:41;;;;;;;10.98;5.50;;;;;;;;;;4976011;28;20057;-91
2022/10/05 05:21:07;;;;;;;14.85;5.72;;;;;;;;;;4962754;28;20091;-91
2022/10/05 05:23:40;;;;;;;9.57;5.38;;;;;;;;;;4962733;28;20026;-90
2022/10/05 05:26:19;;;;;;;8.73;5.07;;;;;;;;;;4960563;28;20027;-91
2022/10/05 05:28:54;;;;;;;12.57;6.13;;;;;;;;;;4978760;28;20479;-91
2022/10/05 05:31:59;;;;;;;7.35;4.28;;;;;;;;;;4979563;28;20026;-91
2022/10/05 05:34:32;;;;;;;11.80;5.93;;;;;;;;;;4910264;29;20046;-91
2022/10/05 05:37:04;;;;;;;9.52;4.32;;;;;;;;;;4908748;29;20028;-91
2022/10/05 05:39:47;;;;;;;11.70;6.43;;;;;;;;;;4947963;28;20542;-91
2022/10/05 05:42:26;;;;;;;19.17;5.57;;;;;;;;;;4976536;28;20028;-91
2022/10/05 05:44:54;;;;;;;16.02;5.60;;;;;;;;;;4977252;28;20050;-91
2022/10/05 05:47:25;;;;;;;10.18;5.32;;;;;;;;;;4962842;28;20383;-91
2022/10/05 05:50:03;;;;;;;11.52;5.15;;;;;;;;;;4966679;28;20121;-90
2022/10/05 05:52:49;;;;;;;9.80;4.40;;;;;;;;;;4964614;28;20436;-91
2022/10/05 05:55:36;;;;;;;9.20;4.50;;;;;;;;;;4976753;28;21213;-91
2022/10/05 05:58:19;;;;;;;8.38;4.00;;;;;;;;;;4974183;28;20088;-91
2022/10/05 06:01:04;;;;;;;12.95;5.30;;;;;;;;;;4963831;28;20047;-91
2022/10/05 06:03:33;;;;;;;13.02;5.40;;;;;;;;;;4979124;28;20397;-91
2022/10/05 06:06:09;;;;;;;10.20;4.63;;;;;;;;;;4958156;28;20037;-91
2022/10/05 06:08:40;;;;;;;13.95;5.65;;;;;;;;;;4974818;28;20129;-91
2022/10/05 06:11:16;;;;;;;12.88;4.72;;;;;;;;;;4954282;28;20360;-89
2022/10/05 06:13:43;;;;;;;9.05;4.50;;;;;;;;;;4976276;28;20122;-91
2022/10/05 06:16:27;;;;;;;11.70;4.82;;;;;;;;;;4959588;28;20039;-91
2022/10/05 06:18:58;;;;;;;10.18;4.43;;;;;;;;;;4972749;28;20478;-91
2022/10/05 06:21:37;;;;;;;9.90;4.55;;;;;;;;;;4961339;28;20505;-89
2022/10/05 06:24:03;;;;;;;8.55;4.80;;;;;;;;;;4958787;28;20079;-90
2022/10/05 06:26:40;;;;;;;7.88;4.57;;;;;;;;;;4980243;28;20681;-90
2022/10/05 06:29:22;;;;;;;9.63;5.00;;;;;;;;;;4969846;28;20026;-90
2022/10/05 06:32:07;;;;;;;10.85;4.63;;;;;;;;;;4980099;28;20019;-91
2022/10/05 06:34:48;;;;;;;8.13;4.00;;;;;;;;;;4973998;28;20030;-89
2022/10/05 06:37:33;;;;;;;9.63;4.78;;;;;;;;;;4965481;28;20050;-91
2022/10/05 06:40:02;;;;;;;7.00;4.22;;;;;;;;;;4968307;28;20421;-91
2022/10/05 06:42:31;;;;;;;9.60;4.82;;;;;;;;;;4979744;28;20464;-91
2022/10/05 06:45:01;;;;;;;7.45;3.95;;;;;;;;;;4965345;28;20046;-90
2022/10/05 06:47:46;;;;;;;10.13;5.00;;;;;;;;;;4967224;28;20520;-91
2022/10/05 06:50:18;;;;;;;8.70;5.22;;;;;;;;;;4980218;28;20155;-91
2022/10/05 06:52:53;;;;;;;8.07;4.72;;;;;;;;;;4983205;28;20022;-91
2022/10/05 06:55:26;;;;;;;8.25;4.70;;;;;;;;;;4960233;28;20030;-91
2022/10/05 06:57:52;;;;;;;9.88;5.15;;;;;;;;;;4957102;28;20516;-91
2022/10/05 07:00:19;;;;;;;9.73;5.00;;;;;;;;;;4972800;28;20629;-91
2022/10/05 07:02:54;;;;;;;10.90;4.30;;;;;;;;;;4965119;28;20113;-91
2022/10/05 07:05:31;;;;;;;11.93;4.32;;;;;;;;;;4962085;28;20437;-91
2022/10/05 07:08:03;;;;;;;8.75;4.18;;;;;;;;;;4962825;28;20031;-90
2022/10/05 07:10:41;;;;;;;12.43;4.32;;;;;;;;;;4968910;28;20398;-91
2022/10/05 07:13:22;;;;;;;7.15;4.85;;;;;;;;;;4983225;28;20056;-91
2022/10/05 07:15:58;;;;;;;4.47;2.60;;;;;;;;;;4959544;28;20038;-91
2022/10/05 07:18:31;;;;;;;5.18;3.08;;;;;;;;;;4964894;28;20022;-91
2022/10/05 07:21:15;;;;;;;6.63;4.10;;;;;;;;;;4983820;28;20483;-90
2022/10/05 07:23:51;;;;;;;7.70;3.53;;;;;;;;;;4964192;28;20132;-92
2022/10/05 07:26:21;;;;;;;9.57;4.28;;;;;;;;;;4970222;28;20088;-91
2022/10/05 07:28:50;;;;;;;12.48;3.60;;;;;;;;;;4979758;28;20445;-91
2022/10/05 07:31:22;;;;;;;7.30;4.00;;;;;;;;;;4966974;28;20311;-90
2022/10/05 07:33:52;;;;;;;7.88;3.95;;;;;;;;;;4967740;28;20598;-91
2022/10/05 07:39:25;;;;;;;5.85;3.45;;;;;;;;;;4984840;28;20054;-92
2022/10/05 07:42:02;;;;;;;11.32;3.63;;;;;;;;;;4984790;28;20034;-91
2022/10/05 07:44:47;;;;;;;6.47;3.78;;;;;;;;;;4962330;28;20149;-91
2022/10/05 07:47:24;;;;;;;5.85;2.58;;;;;;;;;;4961466;28;20627;-91
2022/10/05 07:49:50;;;;;;;5.80;3.47;;;;;;;;;;4941007;28;20134;-91
2022/10/05 07:52:37;;;;;;;5.97;3.15;;;;;;;;;;4965559;28;20101;-91
2022/10/05 07:55:06;;;;;;;10.40;4.13;;;;;;;;;;4945082;28;20112;-92
2022/10/05 07:57:37;;;;;;;6.72;3.35;;;;;;;;;;4957125;28;20513;-91
2022/10/05 08:00:15;;;;;;;3.35;2.00;;;;;;;;;;4963358;28;20067;-90
2022/10/05 08:02:44;;;;;;;9.23;3.58;;;;;;;;;;4940997;28;20030;-92
2022/10/05 08:05:13;;;;;;;6.90;2.92;;;;;;;;;;4948309;28;20033;-91
2022/10/05 08:07:40;;;;;;;3.88;2.03;;;;;;;;;;4948247;28;20031;-91
2022/10/05 08:10:25;;;;;;;3.05;2.25;;;;;;;;;;4946116;28;20529;-90
2022/10/05 08:12:52;;;;;;;4.07;2.30;;;;;;;;;;4963641;28;20023;-91
2022/10/05 08:15:22;;;;;;;5.32;2.53;;;;;;;;;;4951165;28;20030;-91
2022/10/05 08:17:59;;;;;;;3.70;1.92;;;;;;;;;;4950513;28;20042;-91
2022/10/05 08:20:25;;;;;;;5.88;2.67;;;;;;;;;;4963289;28;20062;-90
2022/10/05 08:23:04;;;;;;;3.25;1.92;;;;;;;;;;4946329;28;20031;-91
2022/10/05 08:25:39;;;;;;;5.25;2.03;;;;;;;;;;4937775;28;20130;-91
2022/10/05 08:28:45;;;;;;;5.95;2.30;;;;;;;;;;4948638;28;20555;-91
2022/10/05 08:31:17;;;;;;;3.80;2.35;;;;;;;;;;4890170;29;20135;-91
2022/10/05 08:34:02;;;;;;;4.05;1.92;;;;;;;;;;4904071;29;20034;-91
2022/10/05 08:36:48;;;;;;;3.05;1.83;;;;;;;;;;4946542;28;20038;-91
2022/10/05 08:39:18;;;;;;;4.35;1.80;;;;;;;;;;4944511;28;20521;-91
2022/10/05 08:42:03;;;;;;;5.47;2.03;;;;;;;;;;4948925;28;20030;-91
2022/10/05 08:44:29;;;;;;;6.43;2.00;;;;;;;;;;4956802;28;20078;-91
2022/10/05 08:47:14;;;;;;;2.63;1.65;;;;;;;;;;4983475;28;20524;-91
2022/10/05 08:49:46;;;;;;;4.97;2.30;;;;;;;;;;4979913;28;20034;-91
2022/10/05 08:52:27;;;;;;;2.88;1.83;;;;;;;;;;4965171;28;20030;-91
2022/10/05 08:54:53;;;;;;;5.35;2.40;;;;;;;;;;4977012;28;20030;-91
2022/10/05 08:57:22;;;;;;;3.22;2.08;;;;;;;;;;4963622;28;20038;-92
2022/10/05 08:59:52;;;;;;;4.22;2.00;;;;;;;;;;4979267;28;20037;-91
2022/10/05 09:02:18;;;;;;;2.78;1.90;;;;;;;;;;4964872;28;20033;-91
2022/10/05 09:04:44;;;;;;;3.63;1.55;;;;;;;;;;4967692;28;20443;-91
2022/10/05 09:07:14;;;;;;;4.88;2.30;;;;;;;;;;4968078;28;20364;-92
2022/10/05 09:10:00;;;;;;;5.43;2.42;;;;;;;;;;4965410;28;20490;-92
2022/10/05 09:12:26;;;;;;;;;;;;;;;;;;4969093;28;20121;-91
2022/10/05 09:15:11;;;;;;;4.40;2.33;;;;;;;;;;4963257;28;20040;-92
2022/10/05 09:17:50;;;;;;;7.63;2.47;;;;;;;;;;4959072;28;20488;-91
2022/10/05 09:20:29;;;;;;;4.03;2.88;;;;;;;;;;4977100;28;20407;-91
2022/10/05 09:23:02;;;;;;;4.47;2.35;;;;;;;;;;4959150;28;20035;-90
2022/10/05 09:25:28;;;;;;;9.32;2.28;;;;;;;;;;4966017;28;20029;-90
2022/10/05 09:27:56;;;;;;;3.13;2.20;;;;;;;;;;4969088;28;20022;-91
2022/10/05 09:30:51;;;;;;;7.68;2.75;;;;;;;;;;4967814;28;20073;-91
2022/10/05 09:33:42;;;;;;;4.10;2.65;;;;;;;;;;4911654;28;20106;-92
2022/10/05 09:36:29;;;;;;;7.25;2.90;;;;;;;;;;4960087;28;20490;-91
2022/10/05 09:39:13;;;;;;;3.63;2.17;;;;;;;;;;4964476;28;20031;-91
2022/10/05 09:41:42;;;;;;;4.68;2.60;;;;;;;;;;4983158;28;20508;-91
2022/10/05 09:44:21;;;;;;;2.97;1.60;;;;;;;;;;4968456;28;20056;-91
2022/10/05 09:47:05;;;;;;;3.08;1.77;;;;;;;;;;4965613;28;20031;-91
2022/10/05 09:49:50;;;;;;;7.55;2.45;;;;;;;;;;4962532;28;20606;-91
2022/10/05 09:52:35;;;;;;;9.23;2.33;;;;;;;;;;4983524;28;20487;-91
2022/10/05 09:55:13;;;;;;;4.25;2.25;;;;;;;;;;4959731;28;20122;-91
2022/10/05 09:57:58;;;;;;;10.20;2.78;;;;;;;;;;4961650;28;20038;-91
2022/10/05 10:00:43;;;;;;;3.50;2.30;;;;;;;;;;4964597;28;20437;-91
2022/10/05 10:03:31;;;;;;;3.15;2.03;;;;;;;;;;4978079;28;20554;-92
2022/10/05 10:06:11;;;;;;;3.95;2.13;;;;;;;;;;4984146;28;20394;-91
2022/10/05 10:08:44;;;;;;;6.82;2.10;;;;;;;;;;4968437;28;20076;-91
2022/10/05 10:11:25;;;;;;;4.60;2.30;;;;;;;;;;4969789;28;20049;-91
2022/10/05 10:14:09;;;;;;;5.03;2.45;;;;;;;;;;4970036;28;20089;-92
2022/10/05 10:16:54;;;;;;;4.05;2.40;;;;;;;;;;4984288;28;20046;-92
2022/10/05 10:19:36;;;;;;;5.05;2.75;;;;;;;;;;4969378;28;20486;-91
2022/10/05 10:22:15;;;;;;;5.47;3.20;;;;;;;;;;4985246;28;20026;-91
2022/10/05 10:24:58;;;;;;;3.00;1.95;;;;;;;;;;4970280;28;20033;-92
2022/10/05 10:27:30;;;;;;;5.28;2.53;;;;;;;;;;4969863;28;20023;-92
2022/10/05 10:29:59;;;;;;;3.72;2.63;;;;;;;;;;4970769;28;20393;-92
2022/10/05 10:32:44;;;;;;;2.95;2.63;;;;;;;;;;4985292;28;20038;-92
2022/10/05 10:35:30;;;;;;;2.78;1.98;;;;;;;;;;4980622;28;20062;-92
2022/10/05 10:37:59;;;;;;;10.15;3.05;;;;;;;;;;4967383;28;20031;-92
2022/10/05 10:40:44;;;;;;;4.78;2.42;;;;;;;;;;4978853;28;20483;-92
2022/10/05 10:43:21;;;;;;;5.97;2.67;;;;;;;;;;4965932;28;20403;-92
2022/10/05 10:45:53;;;;;;;8.40;2.65;;;;;;;;;;4971448;28;20209;-92
2022/10/05 10:48:19;;;;;;;8.68;2.83;;;;;;;;;;4968609;28;20034;-91
2022/10/05 10:50:59;;;;;;;3.15;1.88;;;;;;;;;;4973625;28;20033;-91
2022/10/05 10:53:25;;;;;;;7.43;2.92;;;;;;;;;;4964351;28;20516;-92
2022/10/05 10:56:02;;;;;;;3.63;2.72;;;;;;;;;;4969787;28;20037;-92
2022/10/05 10:58:28;;;;;;;5.53;2.67;;;;;;;;;;4966647;28;20042;-92
2022/10/05 11:01:10;;;;;;;6.22;2.75;;;;;;;;;;4967886;28;20027;-91
2022/10/05 11:03:45;;;;;;;2.47;1.90;;;;;;;;;;4980979;28;20034;-91
2022/10/05 11:06:31;;;;;;;4.10;3.00;;;;;;;;;;4971099;28;20022;-92
2022/10/05 11:09:08;;;;;;;13.13;3.33;;;;;;;;;;4968213;28;20038;-91
2022/10/05 11:11:35;;;;;;;10.80;4.32;;;;;;;;;;4977637;28;20038;-92
2022/10/05 11:14:01;;;;;;;5.55;3.10;;;;;;;;;;4968006;28;20027;-91
2022/10/05 11:16:46;;;;;;;4.70;3.05;;;;;;;;;;4985412;28;20033;-92
2022/10/05 11:19:28;;;;;;;3.97;2.58;;;;;;;;;;4987393;28;20019;-92
2022/10/05 11:22:13;;;;;;;8.82;1.88;;;;;;;;;;4980461;28;20391;-92
2022/10/05 11:24:55;;;;;;;4.13;3.00;;;;;;;;;;4968893;28;20446;-92
2022/10/05 11:27:40;;;;;;;4.20;3.03;;;;;;;;;;4966576;28;20022;-91
2022/10/05 11:30:34;;;;;;;3.58;2.75;;;;;;;;;;4970062;28;20494;-92
2022/10/05 11:33:18;;;;;;;9.25;3.20;;;;;;;;;;4950018;28;20057;-91
2022/10/05 11:35:44;;;;;;;4.10;2.67;;;;;;;;;;4960873;28;20031;-92
2022/10/05 11:38:21;;;;;;;3.58;3.05;;;;;;;;;;4970237;28;20214;-92
2022/10/05 11:41:06;;;;;;;10.13;3.15;;;;;;;;;;4968313;28;20062;-92
2022/10/05 11:43:32;;;;;;;8.88;3.30;;;;;;;;;;4968732;28;20478;-92
2022/10/05 11:46:04;;;;;;;7.93;2.33;;;;;;;;;;4968567;28;20121;-92
2022/10/05 11:48:49;;;;;;;6.22;2.35;;;;;;;;;;4966854;28;20125;-91
2022/10/05 11:51:27;;;;;;;5.85;3.20;;;;;;;;;;4986587;28;20039;-91
2022/10/05 11:54:16;;;;;;;3.92;2.67;;;;;;;;;;4968287;28;20694;-91
2022/10/05 11:56:46;;;;;;;4.05;3.05;;;;;;;;;;4967635;28;20046;-93
2022/10/05 11:59:19;;;;;;;8.00;3.20;;;;;;;;;;4968420;28;20026;-92
2022/10/05 12:02:04;;;;;;;10.15;3.58;;;;;;;;;;4979389;28;20027;-92
2022/10/05 12:04:47;;;;;;;4.32;3.10;;;;;;;;;;4970375;28;20057;-92
2022/10/05 12:07:24;;;;;;;7.78;2.92;;;;;;;;;;4962576;28;20105;-92
2022/10/05 12:10:16;;;;;;;9.35;3.13;;;;;;;;;;4966708;28;20417;-92
2022/10/05 12:12:45;;;;;;;4.97;2.65;;;;;;;;;;4984120;28;20034;-92
2022/10/05 12:15:22;;;;;;;7.63;3.28;;;;;;;;;;4969655;28;20034;-93
2022/10/05 12:17:52;;;;;;;5.63;2.92;;;;;;;;;;4966552;28;20457;-92
2022/10/05 12:20:23;;;;;;;15.82;3.03;;;;;;;;;;4982142;28;20023;-91
2022/10/05 12:22:57;;;;;;;9.50;3.10;;;;;;;;;;4962607;28;20030;-92
2022/10/05 12:25:35;;;;;;;6.15;3.10;;;;;;;;;;4966534;28;20391;-92
2022/10/05 12:28:04;;;;;;;5.80;3.53;;;;;;;;;;4967589;28;20054;-92
2022/10/05 12:30:49;;;;;;;10.43;2.80;;;;;;;;;;4983660;28;20360;-92
2022/10/05 12:33:31;;;;;;;6.18;2.78;;;;;;;;;;4968525;28;20059;-93
2022/10/05 12:36:07;;;;;;;4.07;2.50;;;;;;;;;;4965682;28;20069;-92
2022/10/05 12:38:44;;;;;;;8.50;2.90;;;;;;;;;;4965238;28;20073;-93
2022/10/05 12:41:16;;;;;;;5.22;3.10;;;;;;;;;;4972017;28;20026;-93
2022/10/05 12:43:55;;;;;;;5.80;2.75;;;;;;;;;;4977560;28;20037;-92
2022/10/05 12:46:34;;;;;;;3.13;2.35;;;;;;;;;;4969255;28;20055;-93
2022/10/05 12:49:12;;;;;;;6.07;3.10;;;;;;;;;;4970369;28;20125;-93
2022/10/05 12:51:44;;;;;;;5.60;3.30;;;;;;;;;;4985738;28;20058;-92
2022/10/05 12:54:22;;;;;;;6.15;2.92;;;;;;;;;;4965870;28;20175;-92
2022/10/05 12:56:51;;;;;;;4.88;1.95;;;;;;;;;;4965533;28;20389;-92
2022/10/05 12:59:17;;;;;;;10.55;2.85;;;;;;;;;;4969588;28;20438;-92
2022/10/05 13:01:49;;;;;;;6.93;3.17;;;;;;;;;;4969604;28;20121;-92
2022/10/05 13:04:19;;;;;;;5.88;2.97;;;;;;;;;;4970155;28;20117;-92
2022/10/05 13:07:04;;;;;;;10.82;2.80;;;;;;;;;;4969586;28;20365;-91
2022/10/05 13:09:39;;;;;;;6.93;2.40;;;;;;;;;;4983612;28;20050;-93
2022/10/05 13:12:13;;;;;;;8.35;2.83;;;;;;;;;;4965016;28;20031;-92
2022/10/05 13:14:45;;;;;;;8.07;3.67;;;;;;;;;;4965683;28;20124;-92
2022/10/05 13:17:14;;;;;;;5.70;3.13;;;;;;;;;;4968366;28;20180;-92
2022/10/05 13:20:01;;;;;;;4.28;2.72;;;;;;;;;;4967346;28;20376;-93
2022/10/05 13:22:36;;;;;;;6.18;3.10;;;;;;;;;;4967278;28;20862;-93
2022/10/05 13:25:21;;;;;;;4.15;2.50;;;;;;;;;;4963789;28;20229;-93
2022/10/05 13:27:50;;;;;;;8.23;3.55;;;;;;;;;;4968808;28;20066;-93
2022/10/05 13:30:17;;;;;;;5.43;3.03;;;;;;;;;;4970710;28;20109;-93
2022/10/05 13:32:55;;;;;;;4.25;2.65;;;;;;;;;;4963002;28;20076;-92
2022/10/05 13:35:25;;;;;;;7.38;3.00;;;;;;;;;;4965541;28;20022;-91
2022/10/05 13:38:02;;;;;;;8.27;3.65;;;;;;;;;;4975187;28;20030;-93
2022/10/05 13:40:47;;;;;;;7.22;3.63;;;;;;;;;;4970686;28;20141;-93
2022/10/05 13:43:27;;;;;;;5.80;3.35;;;;;;;;;;4970887;28;20022;-92
2022/10/05 13:45:55;;;;;;;5.28;3.47;;;;;;;;;;4972750;28;20526;-92
2022/10/05 13:48:40;;;;;;;7.00;3.47;;;;;;;;;;4970800;28;20045;-93
2022/10/05 13:51:42;;;;;;;11.23;3.92;;;;;;;;;;4973614;28;20394;-94
2022/10/05 13:54:11;;;;;;;11.00;2.75;;;;;;;;;;4931517;29;20035;-93
2022/10/05 13:56:39;;;;;;;8.40;3.55;;;;;;;;;;4962750;28;20049;-92
2022/10/05 13:59:14;;;;;;;3.90;3.15;;;;;;;;;;4974944;28;20386;-93
2022/10/05 14:01:40;;;;;;;4.30;2.40;;;;;;;;;;4971116;28;20418;-93
2022/10/05 14:04:19;;;;;;;7.80;3.13;;;;;;;;;;4972312;28;20038;-93
2022/10/05 14:06:45;;;;;;;6.22;2.40;;;;;;;;;;4983886;28;20034;-93
2022/10/05 14:09:20;;;;;;;4.90;3.03;;;;;;;;;;4954514;28;20037;-92
2022/10/05 14:11:53;;;;;;;7.65;2.90;;;;;;;;;;4970220;28;20125;-93
2022/10/05 14:14:30;;;;;;;3.33;1.90;;;;;;;;;;4968303;28;20026;-93
2022/10/05 14:17:12;;;;;;;3.83;3.40;;;;;;;;;;4969772;28;20486;-93
2022/10/05 14:19:47;;;;;;;4.97;2.35;;;;;;;;;;4983045;28;20069;-93
2022/10/05 14:22:24;;;;;;;8.63;3.05;;;;;;;;;;4982489;28;20036;-93
2022/10/05 14:25:02;;;;;;;3.83;2.42;;;;;;;;;;4981690;28;20092;-92
2022/10/05 14:27:29;;;;;;;2.58;2.03;;;;;;;;;;4985166;28;20038;-92
2022/10/05 14:29:58;;;;;;;11.68;3.75;;;;;;;;;;4985846;28;20531;-93
2022/10/05 14:32:25;;;;;;;4.40;3.20;;;;;;;;;;4972270;28;20133;-92
2022/10/05 14:35:11;;;;;;;4.68;2.25;;;;;;;;;;4971281;28;20061;-92
2022/10/05 14:37:49;;;;;;;5.20;2.75;;;;;;;;;;4971382;28;20030;-92
2022/10/05 14:40:30;;;;;;;7.60;3.20;;;;;;;;;;4971482;28;20034;-92
2022/10/05 14:42:57;;;;;;;9.43;2.97;;;;;;;;;;4965998;28;20026;-92
2022/10/05 14:45:24;;;;;;;4.38;2.83;;;;;;;;;;4980935;28;20088;-92
2022/10/05 14:47:51;;;;;;;6.80;2.63;;;;;;;;;;4982407;28;20022;-93
2022/10/05 14:50:20;;;;;;;6.65;3.30;;;;;;;;;;4967406;28;20034;-92
2022/10/05 14:53:03;;;;;;;4.07;2.42;;;;;;;;;;4973929;28;20092;-92
2022/10/05 14:55:32;;;;;;;4.03;2.78;;;;;;;;;;4985399;28;20151;-92
2022/10/05 14:58:05;;;;;;;5.32;2.60;;;;;;;;;;4965886;28;20038;-92
2022/10/05 15:00:37;;;;;;;5.70;2.58;;;;;;;;;;4972022;28;20089;-92
2022/10/05 15:03:28;;;;;;;11.05;2.40;;;;;;;;;;4983027;28;20034;-93
2022/10/05 15:05:57;;;;;;;4.22;2.40;;;;;;;;;;4988037;28;20081;-92
2022/10/05 15:08:44;;;;;;;3.95;2.60;;;;;;;;;;4971269;28;20495;-92
2022/10/05 15:11:10;;;;;;;;;;;;;;;;;;4969455;28;20034;-94
2022/10/05 15:13:36;;;;;;;;;;;;;;;;;;4968168;28;19913;-92
2022/10/05 15:16:13;;;;;;;6.32;3.30;;;;;;;;;;4963463;28;20159;-92
2022/10/05 15:18:47;;;;;;;6.85;3.10;;;;;;;;;;4971156;28;20355;-92
2022/10/05 15:21:29;;;;;;;6.82;3.00;;;;;;;;;;4968185;28;20054;-93
2022/10/05 15:24:33;;;;;;;5.40;3.13;;;;;;;;;;4967715;28;20023;-92
2022/10/05 15:27:02;;;;;;;6.22;3.88;;;;;;;;;;4929262;29;20114;-92
2022/10/05 15:29:47;;;;;;;5.13;2.78;;;;;;;;;;4944333;28;20071;-92
2022/10/05 15:32:32;;;;;;;6.93;3.90;;;;;;;;;;4955177;28;20035;-92
2022/10/05 15:35:10;;;;;;;6.28;3.03;;;;;;;;;;4985680;28;20109;-92